Aviation Digital Data Service (ADDS)

Output produced by METARs form (0628 UTC 21 August 2017)
found at http://aviationweather.gov/adds/metars/
 
METAR text: KBFM 210553Z AUTO 00000KT 9SM CLR 27/26 A3009 RMK AO2 SLP188 T02670261 10311 20267 403500233 53002
Conditions at: KBFM (MOBILE/BROOKLEY , AL, US) observed 0553 UTC 21 August 2017
Temperature: 26.7°C (80°F)
Dewpoint: 26.1°C (79°F) [RH = 97%]
Pressure (altimeter): 30.09 inches Hg (1019.0 mb)
[Sea-level pressure: 1018.8 mb]
Winds: calm
Visibility: 9 miles (14 km)
Ceiling: at least 12,000 feet AGL
Clouds: sky clear below 12,000 feet AGL
Weather: automated observation with no human augmentation;
there may or may not be significant weather present at this time